createdAt,value
2019-01-06T00:00:05.291Z,2.60
2019-01-06T00:03:13.701Z,2.73
2019-01-06T00:06:22.374Z,2.90
2019-01-06T00:09:09.212Z,2.10
2019-01-06T00:12:17.569Z,2.23
2019-01-06T00:15:03.070Z,2.07
2019-01-06T00:18:11.439Z,3.90
2019-01-06T00:21:20.041Z,3.57
2019-01-06T00:24:28.381Z,2.60
2019-01-06T00:27:36.786Z,2.63
2019-01-06T00:30:26.361Z,3.13
2019-01-06T00:33:15.959Z,2.60
2019-01-06T00:36:17.663Z,3.53
2019-01-06T00:39:26.549Z,2.70
2019-01-06T00:42:35.235Z,2.73
2019-01-06T00:45:43.583Z,2.40
2019-01-06T00:48:52.453Z,2.50
2019-01-06T00:52:00.887Z,2.33
2019-01-06T00:55:09.261Z,3.33
2019-01-06T00:58:17.636Z,2.10
2019-01-06T01:01:07.235Z,2.93
2019-01-06T01:04:15.581Z,3.80
2019-01-06T01:07:24.232Z,2.17
2019-01-06T01:10:32.836Z,1.80
2019-01-06T01:13:41.198Z,2.20
2019-01-06T01:16:49.911Z,2.00
2019-01-06T01:19:58.523Z,2.27
2019-01-06T01:23:07.151Z,2.00
2019-01-06T01:26:16.088Z,2.20
2019-01-06T01:29:24.436Z,2.27
2019-01-06T01:32:33.062Z,2.50
2019-01-06T01:35:41.733Z,2.33
2019-01-06T01:38:43.146Z,2.87
2019-01-06T01:41:51.558Z,4.03
2019-01-06T01:44:59.902Z,2.63
2019-01-06T01:48:08.263Z,2.80
2019-01-06T01:51:16.892Z,2.13
2019-01-06T01:54:25.206Z,2.40
2019-01-06T01:57:33.885Z,2.43
2019-01-06T02:00:42.484Z,3.50
2019-01-06T02:03:51.169Z,2.80
2019-01-06T02:06:59.478Z,2.80
2019-01-06T02:10:07.994Z,2.73
2019-01-06T02:13:16.356Z,2.23
2019-01-06T02:16:24.730Z,3.00
2019-01-06T02:19:33.100Z,2.90
2019-01-06T02:22:41.508Z,3.93
2019-01-06T02:25:49.866Z,3.67
2019-01-06T02:28:58.238Z,3.23
2019-01-06T02:32:06.613Z,4.53
2019-01-06T02:35:15.254Z,4.20
2019-01-06T02:38:19.602Z,3.43
2019-01-06T02:41:27.938Z,3.40
2019-01-06T02:44:36.293Z,4.80
2019-01-06T02:47:44.672Z,3.77
2019-01-06T02:50:53.044Z,3.60
2019-01-06T02:53:42.574Z,3.47
2019-01-06T02:56:51.012Z,3.73
2019-01-06T02:59:59.349Z,2.77
2019-01-06T03:03:07.989Z,3.70
2019-01-06T03:06:15.948Z,3.00
2019-01-06T03:09:26.409Z,3.17
2019-01-06T03:12:35.046Z,2.80
2019-01-06T03:15:43.669Z,2.63
2019-01-06T03:18:52.326Z,2.50
2019-01-06T03:22:00.673Z,2.87
2019-01-06T03:25:09.290Z,2.37
2019-01-06T03:28:17.750Z,2.43
2019-01-06T03:31:07.010Z,3.13
2019-01-06T03:34:15.633Z,4.10
2019-01-06T03:37:17.076Z,3.40
2019-01-06T03:40:25.718Z,2.90
2019-01-06T03:43:34.182Z,2.63
2019-01-06T03:46:42.637Z,2.67
2019-01-06T03:49:51.000Z,2.17
2019-01-06T03:52:40.265Z,3.00
2019-01-06T03:55:29.562Z,2.83
2019-01-06T03:58:37.945Z,3.10
2019-01-06T04:01:46.589Z,3.40
2019-01-06T04:04:54.989Z,2.83
2019-01-06T04:08:03.570Z,2.80
2019-01-06T04:11:15.369Z,3.27
2019-01-06T04:14:22.066Z,2.53
2019-01-06T04:17:30.676Z,2.63
2019-01-06T04:20:39.726Z,2.83
2019-01-06T04:23:48.179Z,3.13
2019-01-06T04:26:56.564Z,3.37
2019-01-06T04:30:05.217Z,3.07
2019-01-06T04:33:05.900Z,3.87
2019-01-06T04:36:12.709Z,3.73
2019-01-06T04:39:21.613Z,3.27
2019-01-06T04:42:30.002Z,3.87
2019-01-06T04:45:38.785Z,4.40
2019-01-06T04:48:47.136Z,3.70
2019-01-06T04:51:55.799Z,4.23
2019-01-06T04:55:04.153Z,5.23
2019-01-06T04:58:12.828Z,3.80
2019-01-06T05:01:21.203Z,3.57
2019-01-06T05:04:29.600Z,3.13
2019-01-06T05:07:37.973Z,3.70
2019-01-06T05:10:46.313Z,2.27
2019-01-06T05:13:54.675Z,3.53
2019-01-06T05:17:03.310Z,4.03
2019-01-06T05:20:09.060Z,1.97
2019-01-06T05:23:17.456Z,2.63
2019-01-06T05:26:25.858Z,2.77
2019-01-06T05:29:19.949Z,3.40
2019-01-06T05:32:28.297Z,4.10
2019-01-06T05:35:30.397Z,4.03
2019-01-06T05:38:38.765Z,3.00
2019-01-06T05:41:47.112Z,2.80
2019-01-06T05:44:51.710Z,3.03
2019-01-06T05:47:42.212Z,3.60
2019-01-06T05:50:50.516Z,2.73
2019-01-06T05:53:58.993Z,3.80
2019-01-06T05:57:07.310Z,3.83
2019-01-06T06:00:16.001Z,2.90
2019-01-06T06:03:24.370Z,3.17
2019-01-06T06:06:32.947Z,3.33
2019-01-06T06:09:41.589Z,3.53
2019-01-06T06:12:49.897Z,2.67
2019-01-06T06:15:58.267Z,3.47
2019-01-06T06:19:06.875Z,3.07
2019-01-06T06:22:15.208Z,3.17
2019-01-06T06:25:23.608Z,4.57
2019-01-06T06:28:32.233Z,2.80
2019-01-06T06:31:40.881Z,2.73
2019-01-06T06:34:49.494Z,2.73
2019-01-06T06:37:57.823Z,2.60
2019-01-06T06:41:06.723Z,4.40
2019-01-06T06:44:15.077Z,3.37
2019-01-06T06:47:23.748Z,3.17
2019-01-06T06:50:32.121Z,4.67
2019-01-06T06:53:40.781Z,4.83
2019-01-06T06:56:49.408Z,3.13
2019-01-06T07:00:18.768Z,3.03
2019-01-06T07:03:13.478Z,2.77
2019-01-06T07:09:50.917Z,3.37
2019-01-06T07:12:59.271Z,2.47
2019-01-06T07:16:07.710Z,2.83
2019-01-06T07:19:16.134Z,3.43
2019-01-06T07:22:24.440Z,3.07
2019-01-06T07:25:32.817Z,4.17
2019-01-06T07:28:41.165Z,3.83
2019-01-06T07:31:42.071Z,3.83
2019-01-06T07:34:50.402Z,3.80
2019-01-06T07:37:38.151Z,4.70
2019-01-06T07:40:46.550Z,3.60
2019-01-06T07:43:54.874Z,4.57
2019-01-06T07:47:03.777Z,5.80
2019-01-06T07:50:12.493Z,8.60
2019-01-06T07:53:20.835Z,6.50
2019-01-06T07:56:29.246Z,4.03
2019-01-06T07:59:29.806Z,4.87
2019-01-06T08:02:38.410Z,7.50
2019-01-06T08:05:47.295Z,3.97
2019-01-06T08:08:55.947Z,5.10
2019-01-06T08:12:04.208Z,4.47
2019-01-06T08:15:12.557Z,4.80
2019-01-06T08:18:02.072Z,4.60
2019-01-06T08:21:06.550Z,6.30
2019-01-06T08:24:14.930Z,4.63
2019-01-06T08:27:23.309Z,3.93
2019-01-06T08:30:12.611Z,5.90
2019-01-06T08:33:13.462Z,5.27
2019-01-06T08:36:22.170Z,6.73
2019-01-06T08:39:30.519Z,6.93
2019-01-06T08:42:38.863Z,6.57
2019-01-06T08:45:45.129Z,5.63
2019-01-06T08:48:53.740Z,4.83
2019-01-06T08:52:02.354Z,6.90
2019-01-06T08:55:11.000Z,6.37
2019-01-06T08:58:19.373Z,10.53
2019-01-06T09:01:27.775Z,7.10
2019-01-06T09:04:36.404Z,8.53
2019-01-06T09:07:44.771Z,8.13
2019-01-06T09:10:53.397Z,7.50
2019-01-06T09:14:01.342Z,8.57
2019-01-06T09:17:09.195Z,7.27
2019-01-06T09:20:17.826Z,11.13
2019-01-06T09:23:07.360Z,8.60
2019-01-06T09:26:15.716Z,12.13
2019-01-06T09:29:24.119Z,8.93
2019-01-06T09:32:25.405Z,9.50
2019-01-06T09:35:34.266Z,8.07
2019-01-06T09:42:10.970Z,6.10
2019-01-06T09:45:19.268Z,7.87
2019-01-06T09:48:27.637Z,10.70
2019-01-06T09:51:36.302Z,6.27
2019-01-06T09:54:44.698Z,6.20
2019-01-06T09:57:53.215Z,7.10
2019-01-06T10:01:01.567Z,6.80
2019-01-06T10:04:09.989Z,7.83
2019-01-06T10:07:18.658Z,8.83
2019-01-06T10:10:27.004Z,6.40
2019-01-06T10:13:36.019Z,8.17
2019-01-06T10:16:44.898Z,6.23
2019-01-06T10:19:53.285Z,8.13
2019-01-06T10:23:01.688Z,7.13
2019-01-06T10:26:10.392Z,4.97
2019-01-06T10:29:18.765Z,4.33
2019-01-06T10:35:30.715Z,7.90
2019-01-06T10:38:39.646Z,4.27
2019-01-06T10:41:24.479Z,4.73
2019-01-06T10:44:32.858Z,5.50
2019-01-06T10:47:41.216Z,6.97
2019-01-06T10:50:49.801Z,5.97
2019-01-06T10:53:58.168Z,5.73
2019-01-06T10:57:06.961Z,5.60
2019-01-06T11:00:15.652Z,4.87
2019-01-06T11:03:24.053Z,5.03
2019-01-06T11:06:32.686Z,4.13
2019-01-06T11:09:41.447Z,4.80
2019-01-06T11:12:49.830Z,3.63
2019-01-06T11:15:58.278Z,5.50
2019-01-06T11:19:06.594Z,5.20
2019-01-06T11:22:14.553Z,4.27
2019-01-06T11:25:23.022Z,5.13
2019-01-06T11:27:55.374Z,4.17
2019-01-06T11:31:03.799Z,4.13
2019-01-06T11:34:12.131Z,4.70
2019-01-06T11:37:20.508Z,3.27
2019-01-06T11:40:28.869Z,6.30
2019-01-06T11:43:37.187Z,6.60
2019-01-06T11:46:45.542Z,5.43
2019-01-06T11:49:53.893Z,4.23
2019-01-06T11:53:02.577Z,4.83
2019-01-06T11:56:11.202Z,5.17
2019-01-06T11:59:19.557Z,5.63
2019-01-06T12:02:28.344Z,5.83
2019-01-06T12:05:36.691Z,7.03
2019-01-06T12:08:45.298Z,5.43
2019-01-06T12:11:53.970Z,8.20
2019-01-06T12:15:02.629Z,6.83
2019-01-06T12:18:11.443Z,4.53
2019-01-06T12:21:00.996Z,7.17
2019-01-06T12:24:09.622Z,3.93
2019-01-06T12:27:17.966Z,6.93
2019-01-06T12:30:26.410Z,6.53
2019-01-06T12:33:29.148Z,6.40
2019-01-06T12:36:37.711Z,5.90
2019-01-06T12:39:27.384Z,4.87
2019-01-06T12:42:35.732Z,5.57
2019-01-06T12:45:44.179Z,9.93
2019-01-06T12:48:52.467Z,6.90
2019-01-06T12:51:43.694Z,6.00
2019-01-06T12:54:52.255Z,11.13
2019-01-06T12:58:00.951Z,12.20
2019-01-06T13:01:09.275Z,10.10
2019-01-06T13:04:17.620Z,13.17
2019-01-06T13:07:26.078Z,8.33
2019-01-06T13:10:34.731Z,7.23
2019-01-06T13:13:44.191Z,8.00
2019-01-06T13:16:48.136Z,10.87
2019-01-06T13:19:56.483Z,11.27
2019-01-06T13:22:45.999Z,10.60
2019-01-06T13:25:35.523Z,7.83
2019-01-06T13:28:18.235Z,7.47
2019-01-06T13:31:07.781Z,10.30
2019-01-06T13:33:57.408Z,11.27
2019-01-06T13:37:14.528Z,24.20
2019-01-06T13:40:15.859Z,8.93
2019-01-06T13:43:24.255Z,10.23
2019-01-06T13:46:28.225Z,9.50
2019-01-06T13:49:17.565Z,8.47
2019-01-06T13:52:25.906Z,12.37
2019-01-06T13:55:15.462Z,6.30
2019-01-06T14:23:39.684Z,19.50
2019-01-06T15:11:11.227Z,12.20
2019-01-06T15:14:19.976Z,10.87
2019-01-06T15:17:28.584Z,19.10
2019-01-06T15:20:36.984Z,10.13
2019-01-06T15:23:32.362Z,13.07
2019-01-06T15:26:21.660Z,12.40
2019-01-06T15:29:30.273Z,12.30
2019-01-06T15:32:37.257Z,11.43
2019-01-06T15:35:45.637Z,13.97
2019-01-06T15:38:51.056Z,9.97
2019-01-06T15:41:59.391Z,10.90
2019-01-06T15:45:08.017Z,9.87
2019-01-06T15:48:16.678Z,11.27
2019-01-06T15:51:25.160Z,9.80
2019-01-06T15:54:33.715Z,11.03
2019-01-06T15:57:42.077Z,11.13
2019-01-06T16:00:50.439Z,11.60
2019-01-06T16:03:56.449Z,10.63
2019-01-06T16:07:04.820Z,14.20
2019-01-06T16:10:13.199Z,10.10
2019-01-06T16:13:21.879Z,8.87
2019-01-06T16:16:30.591Z,13.47
2019-01-06T16:19:39.270Z,11.53
2019-01-06T16:22:47.632Z,18.10
2019-01-06T16:25:56.034Z,12.37
2019-01-06T16:29:04.403Z,12.33
2019-01-06T16:32:05.751Z,12.33
2019-01-06T16:35:14.155Z,12.33
2019-01-06T16:38:03.437Z,15.10
2019-01-06T16:41:11.832Z,14.23
2019-01-06T16:44:20.239Z,11.57
2019-01-06T16:47:28.599Z,14.90
2019-01-06T16:50:37.312Z,11.27
2019-01-06T16:53:26.821Z,17.80
2019-01-06T16:56:35.550Z,21.67
2019-01-06T16:59:43.908Z,16.57
2019-01-06T17:02:52.834Z,14.30
2019-01-06T17:05:42.094Z,14.23
2019-01-06T17:08:50.534Z,13.23
2019-01-06T17:11:59.001Z,8.27
2019-01-06T17:15:07.341Z,7.67
2019-01-06T17:18:18.795Z,7.37
2019-01-06T17:21:27.684Z,7.57
2019-01-06T17:24:36.848Z,9.20
2019-01-06T17:27:44.794Z,7.13
2019-01-06T17:30:53.286Z,9.63
2019-01-06T17:33:55.384Z,8.13
2019-01-06T17:37:03.743Z,10.57
2019-01-06T17:39:53.322Z,8.80
2019-01-06T17:43:02.242Z,10.37
2019-01-06T17:45:51.493Z,11.63
2019-01-06T17:48:59.897Z,9.83
2019-01-06T17:52:08.262Z,8.47
2019-01-06T17:55:16.865Z,8.17
2019-01-06T17:58:06.364Z,10.33
2019-01-06T18:01:11.491Z,9.57
2019-01-06T18:04:19.863Z,12.23
2019-01-06T18:07:28.472Z,13.43
2019-01-06T18:10:21.999Z,12.37
2019-01-06T18:13:27.837Z,12.33
2019-01-06T18:16:36.178Z,11.63
2019-01-06T18:19:36.406Z,11.80
2019-01-06T18:22:44.723Z,11.63
2019-01-06T18:25:53.404Z,14.43
2019-01-06T18:28:54.309Z,12.33
2019-01-06T18:32:05.665Z,13.87
2019-01-06T18:35:07.021Z,10.00
2019-01-06T18:38:15.650Z,12.97
2019-01-06T18:41:16.703Z,144.13
2019-01-06T18:44:25.358Z,14.43
2019-01-06T18:47:34.012Z,13.60
2019-01-06T18:50:42.643Z,9.97
2019-01-06T18:53:51.165Z,8.77
2019-01-06T18:56:59.527Z,13.17
2019-01-06T19:00:08.157Z,10.07
2019-01-06T19:06:40.446Z,11.57
2019-01-06T19:09:43.418Z,11.23
2019-01-06T19:12:51.887Z,10.70
2019-01-06T19:15:39.715Z,9.87
2019-01-06T19:18:29.165Z,11.80
2019-01-06T19:21:18.621Z,14.13
2019-01-06T19:24:27.145Z,10.93
2019-01-06T19:27:35.966Z,10.90
2019-01-06T19:30:25.716Z,13.87
2019-01-06T19:33:26.855Z,12.40
2019-01-06T19:36:35.569Z,13.17
2019-01-06T19:39:44.372Z,12.47
2019-01-06T19:42:53.730Z,15.83
2019-01-06T19:46:02.329Z,14.97
2019-01-06T19:48:51.860Z,13.37
2019-01-06T19:52:00.411Z,13.83
2019-01-06T19:54:50.675Z,13.47
2019-01-06T19:58:00.349Z,11.83
2019-01-06T20:01:10.217Z,13.27
2019-01-06T20:04:19.009Z,18.93
2019-01-06T20:07:28.041Z,17.70
2019-01-06T20:10:37.133Z,18.90
2019-01-06T20:13:46.620Z,17.00
2019-01-06T20:16:55.156Z,14.13
2019-01-06T20:20:04.147Z,19.97
2019-01-06T20:23:14.008Z,20.17
2019-01-06T20:26:22.921Z,22.17
2019-01-06T20:29:32.562Z,16.03
2019-01-06T20:32:23.989Z,17.17
2019-01-06T20:35:22.270Z,19.40
2019-01-06T20:38:30.942Z,23.70
2019-01-06T20:41:21.819Z,19.27
2019-01-06T20:44:30.804Z,17.83
2019-01-06T20:47:39.233Z,18.53
2019-01-06T20:50:40.124Z,18.27
2019-01-06T20:53:42.386Z,16.83
2019-01-06T20:56:48.918Z,18.50
2019-01-06T20:59:57.621Z,22.23
2019-01-06T21:03:06.253Z,18.37
2019-01-06T21:06:14.922Z,20.37
2019-01-06T21:09:25.016Z,22.50
2019-01-06T21:12:33.801Z,19.07
2019-01-06T21:15:42.196Z,19.30
2019-01-06T21:18:50.704Z,23.20
2019-01-06T21:21:31.232Z,26.37
2019-01-06T21:24:40.046Z,23.07
2019-01-06T21:27:29.699Z,20.63
2019-01-06T21:30:38.359Z,19.97
2019-01-06T21:36:51.588Z,20.23
2019-01-06T21:39:59.923Z,21.57
2019-01-06T21:43:08.366Z,21.80
2019-01-06T21:46:16.775Z,21.47
2019-01-06T21:49:06.033Z,23.63
2019-01-06T21:52:14.412Z,30.60
2019-01-06T21:55:22.957Z,25.50
2019-01-06T21:58:31.645Z,25.83
2019-01-06T22:01:20.987Z,26.80
2019-01-06T22:04:29.676Z,26.73
2019-01-06T22:07:38.253Z,24.93
2019-01-06T22:10:27.652Z,23.63
2019-01-06T22:13:36.090Z,24.03
2019-01-06T22:16:44.419Z,26.43
2019-01-06T22:19:52.840Z,22.17
2019-01-06T22:22:53.321Z,25.97
2019-01-06T22:26:01.683Z,26.00
2019-01-06T22:29:10.302Z,25.10
2019-01-06T22:32:18.704Z,22.60
2019-01-06T22:35:28.999Z,29.50
2019-01-06T22:38:38.108Z,24.73
2019-01-06T22:41:27.620Z,31.63
2019-01-06T22:44:17.549Z,28.93
2019-01-06T22:47:16.032Z,30.77
2019-01-06T22:50:05.284Z,30.57
2019-01-06T22:52:54.827Z,24.30
2019-01-06T22:55:44.395Z,29.93
2019-01-06T22:58:34.366Z,27.90
2019-01-06T23:01:42.983Z,29.80
2019-01-06T23:04:51.324Z,30.63
2019-01-06T23:08:00.258Z,29.53
2019-01-06T23:11:08.783Z,34.37
2019-01-06T23:14:00.884Z,35.57
2019-01-06T23:17:09.308Z,39.43
2019-01-06T23:20:09.321Z,34.57
2019-01-06T23:23:17.725Z,35.70
2019-01-06T23:26:26.121Z,36.20
2019-01-06T23:29:34.578Z,34.00
2019-01-06T23:32:36.264Z,33.50
2019-01-06T23:35:44.691Z,38.03
2019-01-06T23:38:53.366Z,34.90
2019-01-06T23:42:01.758Z,33.30
2019-01-06T23:45:10.458Z,34.30
2019-01-06T23:48:18.875Z,34.53
2019-01-06T23:51:08.323Z,32.37
2019-01-06T23:54:16.943Z,34.07
2019-01-06T23:57:02.990Z,28.07
2019-01-06T23:59:52.579Z,37.20
